sensor_id;sensor_type;location;lat;lon;timestamp;pressure;altitude;pressure_sealevel;temperature;humidity
36692;BME280;22678;52.052;4.242;2024-01-25T00:01:26;102878.06;;;7.31;98.39
36692;BME280;22678;52.052;4.242;2024-01-25T00:03:51;102904.81;;;7.46;98.51
36692;BME280;22678;52.052;4.242;2024-01-25T00:06:16;102861.28;;;7.26;98.38
36692;BME280;22678;52.052;4.242;2024-01-25T00:08:42;102886.22;;;7.39;98.62
36692;BME280;22678;52.052;4.242;2024-01-25T00:11:07;102874.75;;;7.35;98.74
36692;BME280;22678;52.052;4.242;2024-01-25T00:13:34;102898.47;;;7.40;99.18
36692;BME280;22678;52.052;4.242;2024-01-25T00:15:59;102887.66;;;7.30;99.09
36692;BME280;22678;52.052;4.242;2024-01-25T00:18:25;102877.97;;;7.28;98.91
36692;BME280;22678;52.052;4.242;2024-01-25T00:20:50;102883.41;;;7.34;98.97
36692;BME280;22678;52.052;4.242;2024-01-25T00:23:16;102846.00;;;7.14;98.94
36692;BME280;22678;52.052;4.242;2024-01-25T00:25:41;102887.88;;;7.36;99.04
36692;BME280;22678;52.052;4.242;2024-01-25T00:28:06;102880.81;;;7.34;99.14
36692;BME280;22678;52.052;4.242;2024-01-25T00:30:31;102877.84;;;7.25;99.16
36692;BME280;22678;52.052;4.242;2024-01-25T00:32:57;102870.59;;;7.17;99.33
36692;BME280;22678;52.052;4.242;2024-01-25T00:35:23;102876.81;;;7.21;99.14
36692;BME280;22678;52.052;4.242;2024-01-25T00:37:49;102868.19;;;7.24;99.17
36692;BME280;22678;52.052;4.242;2024-01-25T00:40:15;102873.38;;;7.22;99.27
36692;BME280;22678;52.052;4.242;2024-01-25T00:42:45;102886.56;;;7.25;99.37
36692;BME280;22678;52.052;4.242;2024-01-25T00:45:14;102875.81;;;7.17;99.27
36692;BME280;22678;52.052;4.242;2024-01-25T00:47:39;102891.63;;;7.21;99.43
36692;BME280;22678;52.052;4.242;2024-01-25T00:50:05;102879.03;;;7.10;99.69
36692;BME280;22678;52.052;4.242;2024-01-25T00:52:31;102872.00;;;7.09;99.68
36692;BME280;22678;52.052;4.242;2024-01-25T00:54:57;102856.72;;;6.97;99.79
36692;BME280;22678;52.052;4.242;2024-01-25T00:57:22;102884.25;;;7.10;99.68
36692;BME280;22678;52.052;4.242;2024-01-25T00:59:48;102898.16;;;7.09;99.68
36692;BME280;22678;52.052;4.242;2024-01-25T01:02:14;102897.22;;;7.07;99.85
36692;BME280;22678;52.052;4.242;2024-01-25T01:04:40;102868.09;;;6.98;99.93
36692;BME280;22678;52.052;4.242;2024-01-25T01:07:06;102855.63;;;6.91;99.99
36692;BME280;22678;52.052;4.242;2024-01-25T01:09:31;102876.88;;;7.00;100.00
36692;BME280;22678;52.052;4.242;2024-01-25T01:11:57;102894.38;;;7.01;100.00
36692;BME280;22678;52.052;4.242;2024-01-25T01:14:22;102900.59;;;7.05;100.00
36692;BME280;22678;52.052;4.242;2024-01-25T01:16:48;102892.59;;;7.00;100.00
36692;BME280;22678;52.052;4.242;2024-01-25T01:19:13;102876.41;;;6.88;100.00
36692;BME280;22678;52.052;4.242;2024-01-25T01:21:38;102906.47;;;6.99;100.00
36692;BME280;22678;52.052;4.242;2024-01-25T01:24:06;102899.34;;;6.95;100.00
36692;BME280;22678;52.052;4.242;2024-01-25T01:26:31;102917.00;;;7.00;100.00
36692;BME280;22678;52.052;4.242;2024-01-25T01:28:57;102908.03;;;6.94;100.00
36692;BME280;22678;52.052;4.242;2024-01-25T01:31:22;102903.34;;;6.85;100.00
36692;BME280;22678;52.052;4.242;2024-01-25T01:33:47;102927.06;;;6.90;100.00
36692;BME280;22678;52.052;4.242;2024-01-25T01:36:13;102932.28;;;6.90;100.00
36692;BME280;22678;52.052;4.242;2024-01-25T01:38:38;102933.81;;;6.84;100.00
36692;BME280;22678;52.052;4.242;2024-01-25T01:41:04;102941.41;;;6.78;100.00
36692;BME280;22678;52.052;4.242;2024-01-25T01:43:29;102920.94;;;6.68;100.00
36692;BME280;22678;52.052;4.242;2024-01-25T01:46:00;102947.59;;;6.80;100.00
36692;BME280;22678;52.052;4.242;2024-01-25T01:48:29;102953.66;;;6.79;100.00
36692;BME280;22678;52.052;4.242;2024-01-25T01:50:54;102932.94;;;6.63;100.00
36692;BME280;22678;52.052;4.242;2024-01-25T01:53:20;102948.88;;;6.69;100.00
36692;BME280;22678;52.052;4.242;2024-01-25T01:55:46;102943.66;;;6.69;100.00
36692;BME280;22678;52.052;4.242;2024-01-25T01:58:11;102958.81;;;6.78;100.00
36692;BME280;22678;52.052;4.242;2024-01-25T02:00:38;102962.25;;;6.77;100.00
36692;BME280;22678;52.052;4.242;2024-01-25T02:03:04;102943.53;;;6.66;100.00
36692;BME280;22678;52.052;4.242;2024-01-25T02:05:29;102949.56;;;6.65;100.00
36692;BME280;22678;52.052;4.242;2024-01-25T02:07:54;102936.94;;;6.55;100.00
36692;BME280;22678;52.052;4.242;2024-01-25T02:10:20;102939.81;;;6.61;100.00
36692;BME280;22678;52.052;4.242;2024-01-25T02:12:45;102950.38;;;6.64;100.00
36692;BME280;22678;52.052;4.242;2024-01-25T02:15:11;102962.66;;;6.65;100.00
36692;BME280;22678;52.052;4.242;2024-01-25T02:17:36;102962.53;;;6.62;100.00
36692;BME280;22678;52.052;4.242;2024-01-25T02:20:02;102962.53;;;6.62;100.00
36692;BME280;22678;52.052;4.242;2024-01-25T02:22:28;102957.97;;;6.58;100.00
36692;BME280;22678;52.052;4.242;2024-01-25T02:24:53;102892.75;;;6.19;100.00
36692;BME280;22678;52.052;4.242;2024-01-25T02:27:19;102951.75;;;6.54;100.00
36692;BME280;22678;52.052;4.242;2024-01-25T02:29:44;102936.63;;;6.47;100.00
36692;BME280;22678;52.052;4.242;2024-01-25T02:32:09;102957.84;;;6.55;100.00
36692;BME280;22678;52.052;4.242;2024-01-25T02:34:35;102957.53;;;6.47;100.00
36692;BME280;22678;52.052;4.242;2024-01-25T02:37:00;102941.53;;;6.39;100.00
36692;BME280;22678;52.052;4.242;2024-01-25T02:39:26;102957.34;;;6.42;100.00
36692;BME280;22678;52.052;4.242;2024-01-25T02:41:51;102944.97;;;6.38;100.00
36692;BME280;22678;52.052;4.242;2024-01-25T02:44:16;102942.75;;;6.47;100.00
36692;BME280;22678;52.052;4.242;2024-01-25T02:46:42;102946.19;;;6.46;100.00
36692;BME280;22678;52.052;4.242;2024-01-25T02:49:10;102905.13;;;6.23;100.00
36692;BME280;22678;52.052;4.242;2024-01-25T02:51:35;102959.34;;;6.48;100.00
36692;BME280;22678;52.052;4.242;2024-01-25T02:54:00;102940.38;;;6.32;100.00
36692;BME280;22678;52.052;4.242;2024-01-25T02:56:26;102951.13;;;6.40;100.00
36692;BME280;22678;52.052;4.242;2024-01-25T02:58:51;102941.19;;;6.31;100.00
36692;BME280;22678;52.052;4.242;2024-01-25T03:01:17;102964.94;;;6.36;100.00
36692;BME280;22678;52.052;4.242;2024-01-25T03:03:42;102942.47;;;6.20;100.00
36692;BME280;22678;52.052;4.242;2024-01-25T03:06:07;102962.19;;;6.33;100.00
36692;BME280;22678;52.052;4.242;2024-01-25T03:08:34;102948.81;;;6.27;100.00
36692;BME280;22678;52.052;4.242;2024-01-25T03:10:59;102914.28;;;6.13;100.00
36692;BME280;22678;52.052;4.242;2024-01-25T03:13:25;102957.78;;;6.32;100.00
36692;BME280;22678;52.052;4.242;2024-01-25T03:15:50;102935.06;;;6.10;100.00
36692;BME280;22678;52.052;4.242;2024-01-25T03:18:16;102967.97;;;6.26;100.00
36692;BME280;22678;52.052;4.242;2024-01-25T03:20:41;102961.69;;;6.22;100.00
36692;BME280;22678;52.052;4.242;2024-01-25T03:23:06;102954.28;;;6.12;100.00
36692;BME280;22678;52.052;4.242;2024-01-25T03:25:32;102925.09;;;6.01;100.00
36692;BME280;22678;52.052;4.242;2024-01-25T03:27:57;102953.66;;;6.18;100.00
36692;BME280;22678;52.052;4.242;2024-01-25T03:30:22;102947.00;;;6.05;100.00
36692;BME280;22678;52.052;4.242;2024-01-25T03:32:48;102963.97;;;6.14;100.00
36692;BME280;22678;52.052;4.242;2024-01-25T03:35:13;102954.00;;;6.06;100.00
36692;BME280;22678;52.052;4.242;2024-01-25T03:37:38;102935.22;;;5.95;100.00
36692;BME280;22678;52.052;4.242;2024-01-25T03:40:04;102933.44;;;5.94;100.00
36692;BME280;22678;52.052;4.242;2024-01-25T03:42:30;102961.72;;;6.03;100.00
36692;BME280;22678;52.052;4.242;2024-01-25T03:44:55;102948.28;;;5.95;100.00
36692;BME280;22678;52.052;4.242;2024-01-25T03:47:20;102940.03;;;5.86;100.00
36692;BME280;22678;52.052;4.242;2024-01-25T03:49:46;102941.88;;;5.88;100.00
36692;BME280;22678;52.052;4.242;2024-01-25T03:52:11;102942.78;;;5.89;100.00
36692;BME280;22678;52.052;4.242;2024-01-25T03:54:37;102957.88;;;5.96;100.00
36692;BME280;22678;52.052;4.242;2024-01-25T03:57:02;102939.75;;;5.79;100.00
36692;BME280;22678;52.052;4.242;2024-01-25T03:59:28;102942.28;;;5.78;100.00
36692;BME280;22678;52.052;4.242;2024-01-25T04:01:53;102953.94;;;5.85;100.00
36692;BME280;22678;52.052;4.242;2024-01-25T04:04:18;102947.84;;;5.86;100.00
36692;BME280;22678;52.052;4.242;2024-01-25T04:06:44;102950.91;;;5.95;100.00
36692;BME280;22678;52.052;4.242;2024-01-25T04:09:13;102955.22;;;5.94;100.00
36692;BME280;22678;52.052;4.242;2024-01-25T04:11:40;102949.09;;;5.94;100.00
36692;BME280;22678;52.052;4.242;2024-01-25T04:14:05;102961.53;;;5.98;100.00
36692;BME280;22678;52.052;4.242;2024-01-25T04:16:32;102943.88;;;5.94;100.00
36692;BME280;22678;52.052;4.242;2024-01-25T04:18:57;102951.94;;;5.99;100.00
36692;BME280;22678;52.052;4.242;2024-01-25T04:21:23;102920.78;;;5.84;100.00
36692;BME280;22678;52.052;4.242;2024-01-25T04:23:48;102913.38;;;5.73;100.00
36692;BME280;22678;52.052;4.242;2024-01-25T04:26:14;102925.75;;;5.77;100.00
36692;BME280;22678;52.052;4.242;2024-01-25T04:28:41;102930.97;;;5.77;100.00
36692;BME280;22678;52.052;4.242;2024-01-25T04:31:06;102943.34;;;5.82;100.00
36692;BME280;22678;52.052;4.242;2024-01-25T04:33:31;102953.84;;;5.83;100.00
36692;BME280;22678;52.052;4.242;2024-01-25T04:35:57;102949.31;;;5.79;100.00
36692;BME280;22678;52.052;4.242;2024-01-25T04:38:22;102928.50;;;5.61;100.00
36692;BME280;22678;52.052;4.242;2024-01-25T04:40:47;102930.41;;;5.65;100.00
36692;BME280;22678;52.052;4.242;2024-01-25T04:43:13;102929.72;;;5.69;100.00
36692;BME280;22678;52.052;4.242;2024-01-25T04:45:39;102936.94;;;5.75;100.00
36692;BME280;22678;52.052;4.242;2024-01-25T04:48:04;102938.53;;;5.71;100.00
36692;BME280;22678;52.052;4.242;2024-01-25T04:50:30;102935.91;;;5.71;100.00
36692;BME280;22678;52.052;4.242;2024-01-25T04:52:55;102957.16;;;5.79;100.00
36692;BME280;22678;52.052;4.242;2024-01-25T04:55:21;102958.84;;;5.78;100.00
36692;BME280;22678;52.052;4.242;2024-01-25T04:57:46;102953.22;;;5.69;100.00
36692;BME280;22678;52.052;4.242;2024-01-25T05:00:13;102968.34;;;5.76;100.00
36692;BME280;22678;52.052;4.242;2024-01-25T05:02:38;102967.53;;;5.77;100.00
36692;BME280;22678;52.052;4.242;2024-01-25T05:05:04;102938.16;;;5.64;100.00
36692;BME280;22678;52.052;4.242;2024-01-25T05:07:29;102967.44;;;5.76;100.00
36692;BME280;22678;52.052;4.242;2024-01-25T05:09:55;102961.84;;;5.68;100.00
36692;BME280;22678;52.052;4.242;2024-01-25T05:12:20;102967.94;;;5.67;100.00
36692;BME280;22678;52.052;4.242;2024-01-25T05:14:45;102966.94;;;5.65;100.00
36692;BME280;22678;52.052;4.242;2024-01-25T05:17:11;102969.56;;;5.65;100.00
36692;BME280;22678;52.052;4.242;2024-01-25T05:19:36;102966.13;;;5.66;100.00
36692;BME280;22678;52.052;4.242;2024-01-25T05:22:01;102969.69;;;5.68;100.00
36692;BME280;22678;52.052;4.242;2024-01-25T05:24:31;102957.03;;;5.58;100.00
36692;BME280;22678;52.052;4.242;2024-01-25T05:26:57;102968.59;;;5.63;100.00
36692;BME280;22678;52.052;4.242;2024-01-25T05:29:22;102953.41;;;5.54;100.00
36692;BME280;22678;52.052;4.242;2024-01-25T05:31:47;102968.59;;;5.63;100.00
36692;BME280;22678;52.052;4.242;2024-01-25T05:36:49;102971.06;;;5.60;100.00
36692;BME280;22678;52.052;4.242;2024-01-25T05:39:14;102927.34;;;5.36;100.00
36692;BME280;22678;52.052;4.242;2024-01-25T05:41:40;102969.88;;;5.53;100.00
36692;BME280;22678;52.052;4.242;2024-01-25T05:44:05;102987.41;;;5.56;100.00
36692;BME280;22678;52.052;4.242;2024-01-25T05:46:30;102942.72;;;5.30;100.00
36692;BME280;22678;52.052;4.242;2024-01-25T05:48:56;102958.81;;;5.39;100.00
36692;BME280;22678;52.052;4.242;2024-01-25T05:51:21;102987.25;;;5.53;100.00
36692;BME280;22678;52.052;4.242;2024-01-25T05:53:47;102985.53;;;5.53;100.00
36692;BME280;22678;52.052;4.242;2024-01-25T05:56:12;102986.13;;;5.48;100.00
36692;BME280;22678;52.052;4.242;2024-01-25T05:58:37;102963.28;;;5.24;100.00
36692;BME280;22678;52.052;4.242;2024-01-25T06:01:03;102983.75;;;5.34;100.00
36692;BME280;22678;52.052;4.242;2024-01-25T06:03:28;102988.69;;;5.28;100.00
36692;BME280;22678;52.052;4.242;2024-01-25T06:05:56;102959.00;;;5.06;100.00
36692;BME280;22678;52.052;4.242;2024-01-25T06:08:21;102953.59;;;5.03;100.00
36692;BME280;22678;52.052;4.242;2024-01-25T06:10:47;103008.69;;;5.28;100.00
36692;BME280;22678;52.052;4.242;2024-01-25T06:13:13;102948.81;;;4.95;100.00
36692;BME280;22678;52.052;4.242;2024-01-25T06:15:38;102950.56;;;4.94;100.00
36692;BME280;22678;52.052;4.242;2024-01-25T06:18:04;102995.94;;;5.16;100.00
36692;BME280;22678;52.052;4.242;2024-01-25T06:20:29;103000.88;;;5.09;100.00
36692;BME280;22678;52.052;4.242;2024-01-25T06:22:54;102998.91;;;5.05;100.00
36692;BME280;22678;52.052;4.242;2024-01-25T06:25:29;102971.41;;;4.94;100.00
36692;BME280;22678;52.052;4.242;2024-01-25T06:27:56;102951.34;;;4.75;100.00
36692;BME280;22678;52.052;4.242;2024-01-25T06:30:22;102963.50;;;4.74;100.00
36692;BME280;22678;52.052;4.242;2024-01-25T06:32:48;102953.44;;;4.64;100.00
36692;BME280;22678;52.052;4.242;2024-01-25T06:35:17;102978.34;;;4.76;100.00
36692;BME280;22678;52.052;4.242;2024-01-25T06:37:42;102955.91;;;4.61;100.00
36692;BME280;22678;52.052;4.242;2024-01-25T06:40:07;102985.47;;;4.80;100.00
36692;BME280;22678;52.052;4.242;2024-01-25T06:42:33;102931.50;;;4.43;100.00
36692;BME280;22678;52.052;4.242;2024-01-25T06:44:58;102953.25;;;4.43;100.00
36692;BME280;22678;52.052;4.242;2024-01-25T06:47:24;103016.44;;;4.73;100.00
36692;BME280;22678;52.052;4.242;2024-01-25T06:49:49;103020.47;;;4.67;100.00
36692;BME280;22678;52.052;4.242;2024-01-25T06:52:17;103013.53;;;4.67;100.00
36692;BME280;22678;52.052;4.242;2024-01-25T06:54:42;102960.00;;;4.39;100.00
36692;BME280;22678;52.052;4.242;2024-01-25T06:57:17;102979.78;;;4.52;100.00
36692;BME280;22678;52.052;4.242;2024-01-25T06:59:42;102955.38;;;4.34;100.00
36692;BME280;22678;52.052;4.242;2024-01-25T07:02:34;102961.81;;;4.41;100.00
36692;BME280;22678;52.052;4.242;2024-01-25T07:05:00;102941.66;;;4.20;100.00
36692;BME280;22678;52.052;4.242;2024-01-25T07:07:26;102999.63;;;4.50;100.00
36692;BME280;22678;52.052;4.242;2024-01-25T07:10:07;102995.50;;;4.37;100.00
36692;BME280;22678;52.052;4.242;2024-01-25T07:12:32;102989.38;;;4.37;100.00
36692;BME280;22678;52.052;4.242;2024-01-25T07:15:12;102952.72;;;4.16;100.00
36692;BME280;22678;52.052;4.242;2024-01-25T07:17:39;102970.38;;;4.21;100.00
36692;BME280;22678;52.052;4.242;2024-01-25T07:20:08;102979.53;;;4.31;100.00
36692;BME280;22678;52.052;4.242;2024-01-25T07:25:52;102981.34;;;4.32;100.00
36692;BME280;22678;52.052;4.242;2024-01-25T07:28:24;102958.31;;;4.24;100.00
36692;BME280;22678;52.052;4.242;2024-01-25T07:30:53;102999.41;;;4.46;100.00
36692;BME280;22678;52.052;4.242;2024-01-25T07:33:27;103005.94;;;4.37;100.00
36692;BME280;22678;52.052;4.242;2024-01-25T07:35:53;102974.34;;;4.15;100.00
36692;BME280;22678;52.052;4.242;2024-01-25T07:38:18;103024.25;;;4.39;100.00
36692;BME280;22678;52.052;4.242;2024-01-25T07:40:46;102983.16;;;4.17;100.00
36692;BME280;22678;52.052;4.242;2024-01-25T07:43:12;102994.06;;;4.26;100.00
36692;BME280;22678;52.052;4.242;2024-01-25T07:45:37;102986.25;;;4.26;100.00
36692;BME280;22678;52.052;4.242;2024-01-25T07:48:18;102972.41;;;4.27;100.00
36692;BME280;22678;52.052;4.242;2024-01-25T07:50:54;102989.81;;;4.28;100.00
36692;BME280;22678;52.052;4.242;2024-01-25T07:53:21;102958.81;;;4.16;100.00
36692;BME280;22678;52.052;4.242;2024-01-25T07:55:55;102969.31;;;4.34;100.00
36692;BME280;22678;52.052;4.242;2024-01-25T07:58:33;102965.78;;;4.34;100.00
36692;BME280;22678;52.052;4.242;2024-01-25T08:01:03;102950.72;;;4.28;100.00
36692;BME280;22678;52.052;4.242;2024-01-25T08:03:33;102947.81;;;4.22;100.00
36692;BME280;22678;52.052;4.242;2024-01-25T08:05:59;102971.91;;;4.34;100.00
36692;BME280;22678;52.052;4.242;2024-01-25T08:08:25;102963.91;;;4.31;100.00
36692;BME280;22678;52.052;4.242;2024-01-25T08:10:50;102956.94;;;4.30;100.00
36692;BME280;22678;52.052;4.242;2024-01-25T08:13:15;102966.03;;;4.38;100.00
36692;BME280;22678;52.052;4.242;2024-01-25T08:15:41;102955.28;;;4.32;100.00
36692;BME280;22678;52.052;4.242;2024-01-25T08:18:15;102993.19;;;4.60;100.00
36692;BME280;22678;52.052;4.242;2024-01-25T08:20:41;102966.50;;;4.48;100.00
36692;BME280;22678;52.052;4.242;2024-01-25T08:23:07;102988.84;;;4.61;100.00
36692;BME280;22678;52.052;4.242;2024-01-25T08:25:36;102960.09;;;4.41;100.00
36692;BME280;22678;52.052;4.242;2024-01-25T08:28:31;102957.72;;;4.46;100.00
36692;BME280;22678;52.052;4.242;2024-01-25T08:30:56;103004.16;;;4.71;100.00
36692;BME280;22678;52.052;4.242;2024-01-25T08:33:22;102939.97;;;4.38;100.00
36692;BME280;22678;52.052;4.242;2024-01-25T08:35:49;102953.34;;;4.45;100.00
36692;BME280;22678;52.052;4.242;2024-01-25T08:38:15;102952.41;;;4.44;100.00
36692;BME280;22678;52.052;4.242;2024-01-25T08:40:40;103004.84;;;4.85;100.00
36692;BME280;22678;52.052;4.242;2024-01-25T08:43:05;102976.09;;;4.65;100.00
36692;BME280;22678;52.052;4.242;2024-01-25T08:45:31;102993.22;;;4.78;100.00
36692;BME280;22678;52.052;4.242;2024-01-25T08:47:56;102964.00;;;4.67;100.00
36692;BME280;22678;52.052;4.242;2024-01-25T08:50:22;102957.00;;;4.66;100.00
36692;BME280;22678;52.052;4.242;2024-01-25T08:52:47;102967.91;;;4.76;100.00
36692;BME280;22678;52.052;4.242;2024-01-25T08:55:13;102991.59;;;4.98;100.00
36692;BME280;22678;52.052;4.242;2024-01-25T08:57:39;102954.19;;;4.80;100.00
36692;BME280;22678;52.052;4.242;2024-01-25T09:00:06;102925.16;;;4.72;100.00
36692;BME280;22678;52.052;4.242;2024-01-25T09:02:36;102938.19;;;4.90;100.00
36692;BME280;22678;52.052;4.242;2024-01-25T09:05:01;102975.97;;;5.16;100.00
36692;BME280;22678;52.052;4.242;2024-01-25T09:07:27;102974.78;;;5.09;100.00
36692;BME280;22678;52.052;4.242;2024-01-25T09:09:52;102957.19;;;5.05;100.00
36692;BME280;22678;52.052;4.242;2024-01-25T09:12:18;102973.88;;;5.27;100.00
36692;BME280;22678;52.052;4.242;2024-01-25T09:14:43;102942.97;;;5.17;100.00
36692;BME280;22678;52.052;4.242;2024-01-25T09:17:09;102981.31;;;5.37;100.00
36692;BME280;22678;52.052;4.242;2024-01-25T09:19:34;102930.59;;;5.13;100.00
36692;BME280;22678;52.052;4.242;2024-01-25T09:22:00;102966.63;;;5.39;100.00
36692;BME280;22678;52.052;4.242;2024-01-25T09:24:29;102949.91;;;5.36;100.00
36692;BME280;22678;52.052;4.242;2024-01-25T09:26:55;102956.41;;;5.44;100.00
36692;BME280;22678;52.052;4.242;2024-01-25T09:29:21;102972.03;;;5.62;100.00
36692;BME280;22678;52.052;4.242;2024-01-25T09:31:46;102914.09;;;5.32;100.00
36692;BME280;22678;52.052;4.242;2024-01-25T09:34:11;102961.56;;;5.62;100.00
36692;BME280;22678;52.052;4.242;2024-01-25T09:36:37;102960.38;;;5.73;100.00
36692;BME280;22678;52.052;4.242;2024-01-25T09:39:02;102952.47;;;5.72;100.00
36692;BME280;22678;52.052;4.242;2024-01-25T09:41:29;102950.94;;;5.77;100.00
36692;BME280;22678;52.052;4.242;2024-01-25T09:43:54;102962.72;;;5.87;100.00
36692;BME280;22678;52.052;4.242;2024-01-25T09:46:20;102961.03;;;5.89;100.00
36692;BME280;22678;52.052;4.242;2024-01-25T09:48:45;102966.56;;;5.95;100.00
36692;BME280;22678;52.052;4.242;2024-01-25T09:51:13;102971.78;;;5.95;100.00
36692;BME280;22678;52.052;4.242;2024-01-25T09:53:40;102958.91;;;5.98;100.00
36692;BME280;22678;52.052;4.242;2024-01-25T09:56:12;102935.22;;;5.95;100.00
36692;BME280;22678;52.052;4.242;2024-01-25T09:58:42;102947.78;;;6.02;100.00
36692;BME280;22678;52.052;4.242;2024-01-25T10:01:09;102942.81;;;6.08;100.00
36692;BME280;22678;52.052;4.242;2024-01-25T10:03:45;102944.59;;;6.09;100.00
36692;BME280;22678;52.052;4.242;2024-01-25T10:06:12;102943.06;;;6.14;100.00
36692;BME280;22678;52.052;4.242;2024-01-25T10:08:38;102941.28;;;6.13;100.00
36692;BME280;22678;52.052;4.242;2024-01-25T10:11:04;102944.16;;;6.20;100.00
36692;BME280;22678;52.052;4.242;2024-01-25T10:13:29;102952.00;;;6.20;100.00
36692;BME280;22678;52.052;4.242;2024-01-25T10:15:55;102945.00;;;6.19;100.00
36692;BME280;22678;52.052;4.242;2024-01-25T10:18:22;102943.47;;;6.24;100.00
36692;BME280;22678;52.052;4.242;2024-01-25T10:20:48;102947.25;;;6.30;100.00
36692;BME280;22678;52.052;4.242;2024-01-25T10:23:13;102955.22;;;6.34;100.00
36692;BME280;22678;52.052;4.242;2024-01-25T10:25:39;102947.31;;;6.32;100.00
36692;BME280;22678;52.052;4.242;2024-01-25T10:28:05;102954.59;;;6.39;100.00
36692;BME280;22678;52.052;4.242;2024-01-25T10:30:35;102956.38;;;6.40;100.00
36692;BME280;22678;52.052;4.242;2024-01-25T10:33:02;102953.06;;;6.44;100.00
36692;BME280;22678;52.052;4.242;2024-01-25T10:35:30;102941.53;;;6.39;100.00
36692;BME280;22678;52.052;4.242;2024-01-25T10:37:56;102949.75;;;6.48;100.00
36692;BME280;22678;52.052;4.242;2024-01-25T10:40:22;102938.28;;;6.45;100.00
36692;BME280;22678;52.052;4.242;2024-01-25T10:42:47;102942.09;;;6.53;100.00
36692;BME280;22678;52.052;4.242;2024-01-25T10:45:13;102944.78;;;6.55;100.00
36692;BME280;22678;52.052;4.242;2024-01-25T10:47:39;102941.34;;;6.56;100.00
36692;BME280;22678;52.052;4.242;2024-01-25T10:50:07;102943.28;;;6.60;100.00
36692;BME280;22678;52.052;4.242;2024-01-25T10:52:37;102941.59;;;6.62;100.00
36692;BME280;22678;52.052;4.242;2024-01-25T10:55:03;102938.28;;;6.66;100.00
36692;BME280;22678;52.052;4.242;2024-01-25T11:00:05;102926.28;;;6.71;100.00
36692;BME280;22678;52.052;4.242;2024-01-25T11:02:34;102906.97;;;6.68;100.00
36692;BME280;22678;52.052;4.242;2024-01-25T11:05:00;102913.44;;;6.76;100.00
36692;BME280;22678;52.052;4.242;2024-01-25T11:07:26;102908.19;;;6.76;100.00
36692;BME280;22678;52.052;4.242;2024-01-25T11:09:51;102900.41;;;6.77;100.00
36692;BME280;22678;52.052;4.242;2024-01-25T11:12:18;102915.78;;;6.91;100.00
36692;BME280;22678;52.052;4.242;2024-01-25T11:14:44;102913.34;;;6.95;100.00
36692;BME280;22678;52.052;4.242;2024-01-25T11:17:22;102884.31;;;6.89;100.00
36692;BME280;22678;52.052;4.242;2024-01-25T11:19:49;102905.72;;;7.01;100.00
36692;BME280;22678;52.052;4.242;2024-01-25T11:22:15;102885.94;;;7.08;100.00
36692;BME280;22678;52.052;4.242;2024-01-25T11:24:41;102881.53;;;7.07;100.00
36692;BME280;22678;52.052;4.242;2024-01-25T11:27:09;102904.72;;;7.21;100.00
36692;BME280;22678;52.052;4.242;2024-01-25T11:29:35;102888.31;;;7.25;100.00
36692;BME280;22678;52.052;4.242;2024-01-25T11:32:00;102877.97;;;7.28;100.00
36692;BME280;22678;52.052;4.242;2024-01-25T11:34:28;102873.84;;;7.34;100.00
36692;BME280;22678;52.052;4.242;2024-01-25T11:36:53;102862.59;;;7.37;100.00
36692;BME280;22678;52.052;4.242;2024-01-25T11:39:18;102865.53;;;7.46;100.00
36692;BME280;22678;52.052;4.242;2024-01-25T11:41:44;102851.69;;;7.49;100.00
36692;BME280;22678;52.052;4.242;2024-01-25T11:44:11;102832.47;;;7.48;100.00
36692;BME280;22678;52.052;4.242;2024-01-25T11:46:36;102850.41;;;7.62;100.00
36692;BME280;22678;52.052;4.242;2024-01-25T11:49:02;102853.25;;;7.68;100.00
36692;BME280;22678;52.052;4.242;2024-01-25T11:51:27;102835.75;;;7.67;100.00
36692;BME280;22678;52.052;4.242;2024-01-25T11:53:53;102844.78;;;7.75;100.00
36692;BME280;22678;52.052;4.242;2024-01-25T11:56:26;102835.41;;;7.82;100.00
36692;BME280;22678;52.052;4.242;2024-01-25T11:58:53;102831.28;;;7.88;100.00
36692;BME280;22678;52.052;4.242;2024-01-25T12:01:21;102822.63;;;7.91;100.00
36692;BME280;22678;52.052;4.242;2024-01-25T12:03:47;102817.28;;;7.88;100.00
36692;BME280;22678;52.052;4.242;2024-01-25T12:06:12;102812.22;;;7.93;100.00
36692;BME280;22678;52.052;4.242;2024-01-25T12:08:38;102819.28;;;7.95;100.00
36692;BME280;22678;52.052;4.242;2024-01-25T12:11:08;102815.03;;;7.99;100.00
36692;BME280;22678;52.052;4.242;2024-01-25T12:13:41;102808.88;;;7.97;100.00
36692;BME280;22678;52.052;4.242;2024-01-25T12:16:08;102793.97;;;7.96;100.00
36692;BME280;22678;52.052;4.242;2024-01-25T12:18:34;102794.91;;;7.98;100.00
36692;BME280;22678;52.052;4.242;2024-01-25T12:21:01;102793.25;;;8.00;100.00
36692;BME280;22678;52.052;4.242;2024-01-25T12:23:38;102778.44;;;8.02;100.00
36692;BME280;22678;52.052;4.242;2024-01-25T12:26:05;102774.28;;;8.07;100.00
36692;BME280;22678;52.052;4.242;2024-01-25T12:28:31;102780.72;;;8.18;100.00
36692;BME280;22678;52.052;4.242;2024-01-25T12:31:00;102779.13;;;8.22;100.00
36692;BME280;22678;52.052;4.242;2024-01-25T12:33:26;102757.25;;;8.21;100.00
36692;BME280;22678;52.052;4.242;2024-01-25T12:35:51;102767.00;;;8.25;100.00
36692;BME280;22678;52.052;4.242;2024-01-25T12:38:18;102764.56;;;8.32;100.00
36692;BME280;22678;52.052;4.242;2024-01-25T12:40:46;102752.28;;;8.29;100.00
36692;BME280;22678;52.052;4.242;2024-01-25T12:43:12;102758.63;;;8.37;100.00
36692;BME280;22678;52.052;4.242;2024-01-25T12:45:37;102760.41;;;8.38;100.00
36692;BME280;22678;52.052;4.242;2024-01-25T12:48:03;102744.66;;;8.37;100.00
36692;BME280;22678;52.052;4.242;2024-01-25T12:50:31;102730.69;;;8.38;100.00
36692;BME280;22678;52.052;4.242;2024-01-25T12:52:56;102734.50;;;8.48;100.00
36692;BME280;22678;52.052;4.242;2024-01-25T12:55:22;102726.69;;;8.49;100.00